Time;durP1;ratioP1;P1;durP2;ratioP2;P2;SDS_P1;SDS_P2;PMS_P1;PMS_P2;Temp;Humidity;BMP_temperature;BMP_pressure;BME280_temperature;BME280_humidity;BME280_pressure;Samples;Min_cycle;Max_cycle;Signal;HPM_P1;HPM_P2
2022/03/02 00:02:45;;;;;;;12.68;7.38;;;;;;;0.81;100.00;101821.09;6052608;29;20183;-91
2022/03/02 00:05:48;;;;;;;12.85;8.05;;;;;;;0.85;100.00;101817.63;6068151;29;20136;-91
2022/03/02 00:08:50;;;;;;;15.13;7.57;;;;;;;0.90;100.00;101823.47;6059458;29;20060;-91
2022/03/02 00:11:53;;;;;;;13.48;8.55;;;;;;;0.93;100.00;101818.31;6060018;29;20055;-92
2022/03/02 00:14:55;;;;;;;14.30;8.30;;;;;;;0.97;100.00;101821.63;6061681;29;20146;-91
2022/03/02 00:17:58;;;;;;;14.25;8.00;;;;;;;0.96;100.00;101817.41;6066579;29;20122;-91
2022/03/02 00:21:00;;;;;;;15.88;8.45;;;;;;;0.97;100.00;101822.50;6032495;29;20049;-91
2022/03/02 00:24:04;;;;;;;12.98;7.60;;;;;;;1.00;100.00;101807.16;6070161;29;20072;-91
2022/03/02 00:27:06;;;;;;;13.23;8.40;;;;;;;0.98;100.00;101824.19;6053104;29;20080;-91
2022/03/02 00:30:10;;;;;;;14.95;8.48;;;;;;;0.97;100.00;101821.63;6053183;29;20589;-91
2022/03/02 00:33:12;;;;;;;12.73;7.65;;;;;;;0.93;100.00;101820.88;6056941;29;20375;-91
2022/03/02 00:36:15;;;;;;;12.65;8.77;;;;;;;0.94;100.00;101824.25;6057706;29;20037;-91
2022/03/02 00:39:17;;;;;;;16.45;9.18;;;;;;;0.94;100.00;101832.72;6050869;29;20530;-91
2022/03/02 00:42:19;;;;;;;18.38;9.70;;;;;;;0.95;100.00;101826.78;6059819;29;20571;-91
2022/03/02 00:45:22;;;;;;;18.05;10.35;;;;;;;0.99;100.00;101822.47;6049109;29;20398;-91
2022/03/02 00:48:25;;;;;;;19.05;10.77;;;;;;;1.00;100.00;101817.34;6054374;29;20049;-91
2022/03/02 00:51:28;;;;;;;17.42;9.45;;;;;;;0.99;100.00;101817.34;6054263;29;20049;-91
2022/03/02 00:54:30;;;;;;;22.25;11.02;;;;;;;0.98;100.00;101813.97;6052541;29;20105;-91
2022/03/02 00:57:33;;;;;;;18.05;10.70;;;;;;;1.00;100.00;101806.31;6065132;29;20044;-91
2022/03/02 01:00:36;;;;;;;18.58;9.82;;;;;;;1.01;100.00;101808.81;6050070;29;20132;-91
2022/03/02 01:03:39;;;;;;;16.67;9.73;;;;;;;1.00;100.00;101812.25;6039951;29;20042;-92
2022/03/02 01:06:41;;;;;;;15.15;9.65;;;;;;;1.04;100.00;101805.38;6059605;29;20044;-91
2022/03/02 01:09:43;;;;;;;14.30;7.93;;;;;;;1.04;100.00;101800.28;6047468;29;20053;-91
2022/03/02 01:12:46;;;;;;;16.15;9.40;;;;;;;1.01;100.00;101798.63;6055264;29;20509;-91
2022/03/02 01:15:49;;;;;;;14.52;8.93;;;;;;;1.01;100.00;101796.06;6054939;29;20044;-91
2022/03/02 01:18:51;;;;;;;14.25;8.95;;;;;;;1.00;100.00;101791.00;6046703;29;20555;-91
2022/03/02 01:21:54;;;;;;;15.55;7.85;;;;;;;0.99;100.00;101791.88;6045692;29;20052;-91
2022/03/02 01:24:56;;;;;;;11.05;7.88;;;;;;;0.98;100.00;101780.84;6062969;29;20069;-91
2022/03/02 01:28:00;;;;;;;15.32;8.35;;;;;;;1.00;100.00;101779.09;6045419;29;20124;-91
2022/03/02 01:31:02;;;;;;;15.00;8.75;;;;;;;0.96;100.00;101785.13;6060437;29;20041;-91
2022/03/02 01:34:04;;;;;;;19.67;9.98;;;;;;;0.96;100.00;101779.19;6062010;29;20093;-91
2022/03/02 01:37:07;;;;;;;15.63;9.02;;;;;;;0.97;100.00;101770.66;6069279;29;20079;-91
2022/03/02 01:40:10;;;;;;;16.10;8.85;;;;;;;0.98;100.00;101767.25;6054613;29;20041;-91
2022/03/02 01:43:13;;;;;;;14.13;8.95;;;;;;;0.97;100.00;101766.44;6049093;29;20045;-91
2022/03/02 01:46:16;;;;;;;12.35;8.32;;;;;;;0.93;100.00;101767.34;6037756;29;20038;-91
2022/03/02 01:49:18;;;;;;;15.65;8.38;;;;;;;0.94;100.00;101763.06;6059062;29;20057;-91
2022/03/02 01:52:22;;;;;;;16.05;8.75;;;;;;;0.93;100.00;101758.84;6043925;29;20077;-91
2022/03/02 01:55:25;;;;;;;16.67;8.80;;;;;;;0.94;100.00;101755.44;6060330;29;20051;-91
2022/03/02 01:58:29;;;;;;;17.15;8.98;;;;;;;0.93;100.00;101749.50;6062231;29;20873;-91
2022/03/02 02:01:32;;;;;;;12.73;8.20;;;;;;;0.92;100.00;101740.19;6042191;29;20053;-91
2022/03/02 02:04:35;;;;;;;15.05;9.13;;;;;;;0.88;100.00;101730.91;6060558;29;20061;-91
2022/03/02 02:07:37;;;;;;;14.10;8.10;;;;;;;0.86;100.00;101733.47;6058372;29;20049;-91
2022/03/02 02:10:40;;;;;;;16.58;9.50;;;;;;;0.85;100.00;101728.41;6066776;29;20076;-91
2022/03/02 02:13:42;;;;;;;14.05;8.02;;;;;;;0.85;100.00;101736.06;6055569;29;21007;-91
2022/03/02 02:16:45;;;;;;;10.73;7.65;;;;;;;0.83;100.00;101730.16;6076217;29;20101;-91
2022/03/02 02:19:47;;;;;;;17.55;9.43;;;;;;;0.82;100.00;101719.13;6047142;29;20056;-91
2022/03/02 02:22:50;;;;;;;14.70;8.73;;;;;;;0.84;100.00;101721.63;6061692;29;20047;-91
2022/03/02 02:25:53;;;;;;;15.90;9.10;;;;;;;0.83;100.00;101723.34;6079190;29;20045;-91
2022/03/02 02:28:55;;;;;;;15.85;8.57;;;;;;;0.85;100.00;101720.78;6069517;29;20128;-91
2022/03/02 02:31:58;;;;;;;14.23;9.02;;;;;;;0.85;100.00;101725.88;6070103;29;20049;-91
2022/03/02 02:35:00;;;;;;;14.73;8.57;;;;;;;0.85;100.00;101710.56;6054783;29;20092;-91
2022/03/02 02:38:04;;;;;;;13.18;8.95;;;;;;;0.83;100.00;101712.31;6072405;29;20071;-91
2022/03/02 02:41:06;;;;;;;15.15;9.15;;;;;;;0.82;100.00;101711.47;6059087;29;20045;-91
2022/03/02 02:44:08;;;;;;;16.65;8.73;;;;;;;0.81;100.00;101703.84;6092646;29;20053;-91
2022/03/02 02:47:12;;;;;;;17.23;8.52;;;;;;;0.81;100.00;101706.41;6067522;29;20071;-91
2022/03/02 02:50:17;;;;;;;14.82;8.27;;;;;;;0.80;100.00;101704.72;6075549;29;20041;-91
2022/03/02 02:53:19;;;;;;;14.68;8.82;;;;;;;0.80;100.00;101712.38;6054475;29;20042;-91
2022/03/02 02:56:24;;;;;;;16.52;9.07;;;;;;;0.77;100.00;101703.09;6075297;29;20079;-91
2022/03/02 02:59:27;;;;;;;13.13;8.30;;;;;;;0.80;100.00;101702.19;6074133;29;20041;-91
2022/03/02 03:02:29;;;;;;;13.18;8.30;;;;;;;0.79;100.00;101703.88;6066268;29;20065;-91
2022/03/02 03:05:32;;;;;;;16.33;8.45;;;;;;;0.82;100.00;101702.97;6069948;29;20037;-91
2022/03/02 03:08:35;;;;;;;15.73;8.60;;;;;;;0.83;100.00;101707.22;6066334;29;20117;-91
2022/03/02 03:11:39;;;;;;;18.08;8.70;;;;;;;0.80;100.00;101705.56;6049141;29;20046;-91
2022/03/02 03:14:55;;;;;;;16.10;9.43;;;;;;;0.74;100.00;101702.28;6063952;29;20044;-92
2022/03/02 03:17:58;;;;;;;14.98;8.65;;;;;;;0.70;100.00;101704.06;6062223;29;20114;-91
2022/03/02 03:21:00;;;;;;;15.23;8.98;;;;;;;0.69;100.00;101704.09;6079879;29;20057;-91
2022/03/02 03:24:03;;;;;;;18.05;8.48;;;;;;;0.66;100.00;101696.50;6052773;29;20056;-91
2022/03/02 03:27:19;;;;;;;15.52;9.55;;;;;;;0.65;100.00;101698.22;6071626;29;20116;-91
2022/03/02 03:30:24;;;;;;;17.08;10.23;;;;;;;0.62;100.00;101701.66;6054781;29;20506;-91
2022/03/02 03:33:27;;;;;;;17.35;10.05;;;;;;;0.62;100.00;101688.06;6066577;29;20049;-91
2022/03/02 03:36:30;;;;;;;15.60;10.00;;;;;;;0.60;100.00;101689.81;6051850;29;20045;-91
2022/03/02 03:39:32;;;;;;;16.00;9.57;;;;;;;0.59;100.00;101690.66;6060011;29;20056;-91
2022/03/02 03:42:35;;;;;;;16.35;9.38;;;;;;;0.56;100.00;101683.09;6064255;29;20075;-91
2022/03/02 03:45:37;;;;;;;18.60;9.73;;;;;;;0.61;100.00;101683.84;6072372;29;20045;-91
2022/03/02 03:48:40;;;;;;;17.10;9.90;;;;;;;0.59;100.00;101677.94;6059785;29;20077;-91
2022/03/02 03:51:43;;;;;;;15.85;9.65;;;;;;;0.60;100.00;101690.66;6048210;29;20055;-91
2022/03/02 03:54:45;;;;;;;18.50;9.27;;;;;;;0.60;100.00;101688.09;6067978;29;20040;-91
2022/03/02 03:57:49;;;;;;;18.80;9.63;;;;;;;0.59;100.00;101681.31;6081901;29;20048;-91
2022/03/02 04:00:51;;;;;;;19.15;10.02;;;;;;;0.57;100.00;101677.13;6069720;29;20055;-91
2022/03/02 04:03:55;;;;;;;19.75;10.63;;;;;;;0.56;100.00;101675.44;6068850;29;20048;-91
2022/03/02 04:06:58;;;;;;;16.00;9.48;;;;;;;0.52;100.00;101669.59;6071952;29;20037;-91
2022/03/02 04:10:00;;;;;;;16.05;9.73;;;;;;;0.49;100.00;101682.34;6053923;29;20049;-90
2022/03/02 04:13:03;;;;;;;19.42;10.07;;;;;;;0.44;100.00;101684.16;6061307;29;20048;-91
2022/03/02 04:16:06;;;;;;;17.98;9.18;;;;;;;0.37;100.00;101682.59;6056739;29;20037;-91
2022/03/02 04:19:09;;;;;;;18.88;10.32;;;;;;;0.30;100.00;101681.88;6069949;29;20186;-91
2022/03/02 04:22:16;;;;;;;15.55;9.88;;;;;;;0.23;100.00;101679.47;6069803;29;20052;-91
2022/03/02 04:25:20;;;;;;;14.75;9.38;;;;;;;0.09;100.00;101680.50;6065633;29;20045;-91
2022/03/02 04:28:24;;;;;;;17.40;9.63;;;;;;;-0.02;100.00;101683.25;6053217;29;20044;-91
2022/03/02 04:31:27;;;;;;;16.00;9.40;;;;;;;-0.13;100.00;101674.94;6069356;29;20101;-91
2022/03/02 04:34:30;;;;;;;16.05;9.75;;;;;;;-0.20;100.00;101680.16;6050555;29;20056;-91
2022/03/02 04:37:34;;;;;;;17.35;9.88;;;;;;;-0.27;100.00;101680.25;6090341;29;20060;-91
2022/03/02 04:40:44;;;;;;;16.33;9.43;;;;;;;-0.29;100.00;101678.59;6056706;29;20064;-91
2022/03/02 04:43:47;;;;;;;16.77;10.63;;;;;;;-0.28;100.00;101672.63;6037425;29;20143;-91
2022/03/02 04:46:51;;;;;;;20.00;10.40;;;;;;;-0.31;100.00;101667.59;6071078;29;20056;-91
2022/03/02 04:49:55;;;;;;;19.27;10.23;;;;;;;-0.31;100.00;101663.34;6064359;29;20057;-91
2022/03/02 04:52:58;;;;;;;17.27;9.77;;;;;;;-0.29;100.00;101664.16;6069951;29;20060;-91
2022/03/02 04:56:01;;;;;;;21.58;10.45;;;;;;;-0.25;100.00;101654.78;6053868;29;20042;-91
2022/03/02 04:59:05;;;;;;;17.80;10.18;;;;;;;-0.20;100.00;101653.00;6059481;29;20064;-91
2022/03/02 05:02:10;;;;;;;19.15;10.25;;;;;;;-0.15;100.00;101652.91;6045809;29;20049;-91
2022/03/02 05:05:17;;;;;;;18.88;10.77;;;;;;;-0.05;100.00;101657.00;6052302;29;20072;-91
2022/03/02 05:08:24;;;;;;;20.42;10.38;;;;;;;-0.01;100.00;101658.63;6051224;29;20100;-91
2022/03/02 05:11:32;;;;;;;19.00;10.25;;;;;;;0.02;100.00;101658.56;6067517;29;20048;-91
2022/03/02 05:14:40;;;;;;;19.45;10.75;;;;;;;0.08;100.00;101660.19;6038417;29;20140;-91
2022/03/02 05:17:43;;;;;;;18.38;9.98;;;;;;;0.11;100.00;101658.44;6069713;29;20415;-91
2022/03/02 05:20:48;;;;;;;19.10;10.30;;;;;;;0.12;100.00;101652.44;6055083;29;20077;-90
2022/03/02 05:24:08;;;;;;;20.73;10.38;;;;;;;0.15;100.00;101652.44;6052783;29;20053;-91
2022/03/02 05:27:11;;;;;;;15.77;10.40;;;;;;;0.16;100.00;101646.44;6064787;29;20041;-91
2022/03/02 05:30:16;;;;;;;14.05;9.40;;;;;;;0.17;100.00;101648.16;6066775;29;20053;-91
2022/03/02 05:33:19;;;;;;;19.67;10.48;;;;;;;0.15;100.00;101651.56;6053518;29;20088;-91
2022/03/02 05:36:23;;;;;;;17.30;10.25;;;;;;;0.16;100.00;101651.53;6051305;29;20045;-91
2022/03/02 05:39:32;;;;;;;19.10;10.60;;;;;;;0.19;100.00;101645.56;6045100;29;20056;-91
2022/03/02 05:42:35;;;;;;;17.40;9.50;;;;;;;0.21;100.00;101648.91;6061441;29;20636;-91
2022/03/02 05:45:38;;;;;;;17.52;10.45;;;;;;;0.26;100.00;101647.13;6043579;29;20568;-91
2022/03/02 05:48:41;;;;;;;15.68;9.95;;;;;;;0.27;100.00;101647.97;6046814;29;20045;-91
2022/03/02 05:51:44;;;;;;;16.77;10.15;;;;;;;0.29;100.00;101648.78;6065690;29;20037;-91
2022/03/02 05:54:47;;;;;;;18.00;9.65;;;;;;;0.32;100.00;101652.09;6048941;29;20404;-91
2022/03/02 05:57:50;;;;;;;16.77;10.32;;;;;;;0.35;100.00;101653.78;6060861;29;20049;-91
2022/03/02 06:00:53;;;;;;;18.73;9.73;;;;;;;0.36;100.00;101663.91;6045152;29;20053;-91
2022/03/02 06:03:55;;;;;;;16.55;9.48;;;;;;;0.38;100.00;101664.75;6064445;29;20051;-91
2022/03/02 06:07:13;;;;;;;16.95;9.23;;;;;;;0.41;100.00;101663.84;6069430;29;20041;-91
2022/03/02 06:10:19;;;;;;;17.75;9.68;;;;;;;0.40;100.00;101667.28;6071843;29;20537;-91
2022/03/02 06:13:23;;;;;;;16.60;9.52;;;;;;;0.41;100.00;101674.84;6067193;29;20040;-91
2022/03/02 06:16:25;;;;;;;16.17;9.30;;;;;;;0.43;100.00;101672.28;6058734;29;20043;-91
2022/03/02 06:19:28;;;;;;;19.30;10.98;;;;;;;0.41;100.00;101668.94;6045499;29;20048;-91
2022/03/02 06:22:31;;;;;;;16.00;9.57;;;;;;;0.42;100.00;101671.47;6040280;29;20112;-91
2022/03/02 06:25:34;;;;;;;16.60;10.05;;;;;;;0.43;100.00;101672.28;6044663;29;20052;-91
2022/03/02 06:28:37;;;;;;;15.68;10.40;;;;;;;0.48;100.00;101682.41;6064944;29;20066;-91
2022/03/02 06:31:40;;;;;;;18.33;10.77;;;;;;;0.50;100.00;101673.00;6036419;29;20052;-91
2022/03/02 06:34:43;;;;;;;17.08;10.27;;;;;;;0.52;100.00;101674.69;6048379;29;20049;-91
2022/03/02 06:37:57;;;;;;;19.83;10.20;;;;;;;0.57;100.00;101674.56;6046089;29;20045;-91
2022/03/02 06:41:40;;;;;;;16.48;10.15;;;;;;;0.61;100.00;101674.50;6054365;29;20109;-91
2022/03/02 06:45:08;;;;;;;14.80;9.35;;;;;;;0.70;100.00;101670.94;6038157;29;20519;-91
2022/03/02 06:48:13;;;;;;;21.17;10.85;;;;;;;0.78;100.00;101668.25;6036169;29;20054;-91
2022/03/02 06:51:21;;;;;;;16.98;10.65;;;;;;;0.86;100.00;101671.47;6058269;29;20052;-91
2022/03/02 06:54:29;;;;;;;18.58;10.80;;;;;;;0.92;100.00;101673.91;6041901;29;20045;-91
2022/03/02 06:57:32;;;;;;;17.92;10.23;;;;;;;1.03;100.00;101679.59;6046579;29;20174;-91
2022/03/02 07:00:35;;;;;;;18.95;10.65;;;;;;;1.10;100.00;101671.84;6058120;29;20052;-91
2022/03/02 07:03:45;;;;;;;19.25;11.00;;;;;;;1.15;100.00;101670.03;6056974;29;20057;-91
2022/03/02 07:06:48;;;;;;;16.25;10.27;;;;;;;1.17;100.00;101675.91;6040414;29;20072;-91
2022/03/02 07:09:50;;;;;;;15.73;9.38;;;;;;;1.14;100.00;101676.81;6045210;29;20148;-91
2022/03/02 07:12:52;;;;;;;17.42;10.73;;;;;;;1.07;100.00;101671.03;6057053;29;20045;-91
2022/03/02 07:15:54;;;;;;;18.92;10.32;;;;;;;0.97;100.00;101677.19;6046034;29;20135;-91
2022/03/02 07:18:57;;;;;;;19.25;10.23;;;;;;;0.82;100.00;101680.91;6040729;29;20069;-91
2022/03/02 07:22:07;;;;;;;16.42;9.95;;;;;;;0.73;100.00;101691.25;6040142;29;20049;-91
2022/03/02 07:25:19;;;;;;;19.40;9.57;;;;;;;0.74;100.00;101692.94;6055697;29;20057;-91
2022/03/02 07:28:23;;;;;;;17.38;10.60;;;;;;;0.54;100.00;101687.38;6058600;29;20124;-91
2022/03/02 07:31:26;;;;;;;17.00;10.52;;;;;;;0.40;100.00;101695.28;6044815;29;20049;-91
2022/03/02 07:34:54;;;;;;;16.65;10.52;;;;;;;0.34;100.00;101688.56;6046805;29;20048;-91
2022/03/02 07:37:57;;;;;;;19.40;11.32;;;;;;;0.29;100.00;101692.91;6042634;29;20068;-91
2022/03/02 07:41:01;;;;;;;19.38;11.45;;;;;;;0.26;100.00;101689.59;6058863;29;20181;-91
2022/03/02 07:44:06;;;;;;;17.83;10.15;;;;;;;0.26;100.00;101687.88;6064850;29;20053;-91
2022/03/02 07:47:09;;;;;;;22.45;10.68;;;;;;;0.28;100.00;101687.84;6067041;29;20049;-91
2022/03/02 07:50:13;;;;;;;20.50;10.27;;;;;;;0.32;100.00;101676.72;6054552;29;20064;-91
2022/03/02 07:53:17;;;;;;;19.63;11.10;;;;;;;0.42;100.00;101681.66;6048073;29;20045;-91
2022/03/02 07:56:20;;;;;;;19.02;10.15;;;;;;;0.61;100.00;101678.75;6038121;29;20041;-91
2022/03/02 07:59:22;;;;;;;17.85;10.30;;;;;;;0.92;100.00;101671.34;6057007;29;20052;-91
2022/03/02 08:02:25;;;;;;;19.38;10.95;;;;;;;1.22;100.00;101667.31;6013422;29;20061;-91
2022/03/02 08:05:28;;;;;;;18.83;10.38;;;;;;;1.46;100.00;101665.91;6049446;29;20063;-91
2022/03/02 08:08:31;;;;;;;17.20;10.43;;;;;;;1.66;100.00;101656.97;6039351;29;20052;-91
2022/03/02 08:11:34;;;;;;;17.00;10.27;;;;;;;1.84;100.00;101671.88;6055060;29;20037;-91
2022/03/02 08:14:37;;;;;;;18.17;10.10;;;;;;;1.98;100.00;101670.69;6057756;29;20056;-91
2022/03/02 08:17:39;;;;;;;21.33;10.75;;;;;;;2.06;100.00;101659.41;6062490;29;20257;-91
2022/03/02 08:20:57;;;;;;;17.05;11.18;;;;;;;2.14;100.00;101664.31;6048085;29;20169;-91
2022/03/02 08:24:04;;;;;;;17.45;11.00;;;;;;;2.27;100.00;101657.19;6063731;29;20531;-91
2022/03/02 08:27:06;;;;;;;16.75;10.77;;;;;;;2.42;100.00;101655.94;6063992;29;20053;-91
2022/03/02 08:30:11;;;;;;;17.00;10.30;;;;;;;2.57;100.00;101651.22;6060027;29;20045;-91
2022/03/02 08:33:18;;;;;;;16.98;9.90;;;;;;;2.75;100.00;101659.28;6060396;29;20181;-91
2022/03/02 08:36:24;;;;;;;14.48;9.48;;;;;;;2.86;100.00;101653.84;6061650;29;20061;-91
2022/03/02 08:39:26;;;;;;;16.52;9.45;;;;;;;2.98;100.00;101651.78;6060901;29;20550;-91
2022/03/02 08:42:28;;;;;;;18.90;10.25;;;;;;;3.01;100.00;101656.81;6058661;29;20385;-91
2022/03/02 08:45:30;;;;;;;16.17;9.75;;;;;;;2.98;100.00;101651.78;6054276;29;20056;-91
2022/03/02 08:48:33;;;;;;;15.75;9.73;;;;;;;2.97;100.00;101650.09;6054847;29;20116;-91
2022/03/02 08:51:36;;;;;;;17.23;9.68;;;;;;;2.99;100.00;101642.41;6046490;29;20119;-91
2022/03/02 08:54:44;;;;;;;14.18;9.52;;;;;;;2.86;100.00;101638.50;6054560;29;20041;-91
2022/03/02 08:57:49;;;;;;;15.52;9.88;;;;;;;2.85;100.00;101644.50;6029591;29;20056;-91
2022/03/02 09:00:52;;;;;;;19.95;10.50;;;;;;;2.89;100.00;101636.72;6052826;29;20064;-91
2022/03/02 09:03:58;;;;;;;14.45;10.20;;;;;;;3.01;100.00;101646.59;6034402;29;20049;-91
2022/03/02 09:07:03;;;;;;;17.27;10.00;;;;;;;3.12;100.00;101646.25;6053672;29;20513;-91
2022/03/02 09:10:06;;;;;;;15.68;9.75;;;;;;;3.19;100.00;101634.13;6052843;29;20048;-90
2022/03/02 09:13:12;;;;;;;16.40;10.57;;;;;;;3.11;100.00;101642.03;6036726;29;20128;-91
2022/03/02 09:16:28;;;;;;;16.42;9.77;;;;;;;3.06;100.00;101646.44;6037779;29;20053;-91
2022/03/02 09:19:32;;;;;;;14.73;9.32;;;;;;;3.06;100.00;101653.28;6058667;29;20119;-91
2022/03/02 09:22:36;;;;;;;14.27;8.65;;;;;;;2.95;100.00;101654.41;6053571;29;20052;-91
2022/03/02 09:26:04;;;;;;;14.25;8.48;;;;;;;2.85;100.00;101647.91;6045218;29;20051;-91
2022/03/02 09:29:07;;;;;;;16.77;9.85;;;;;;;2.78;100.00;101641.28;6057021;29;20084;-91
2022/03/02 09:32:11;;;;;;;16.13;10.15;;;;;;;2.83;100.00;101657.31;6039535;29;20060;-91
2022/03/02 09:35:14;;;;;;;14.85;9.48;;;;;;;2.86;100.00;101661.50;6038454;29;20807;-91
2022/03/02 09:38:20;;;;;;;12.68;7.57;;;;;;;2.95;100.00;101656.97;6041599;29;20049;-91
2022/03/02 09:41:49;;;;;;;11.18;7.13;;;;;;;3.08;100.00;101661.72;6052312;29;20053;-91
2022/03/02 09:45:09;;;;;;;14.00;7.80;;;;;;;3.14;94.95;101659.00;6043622;29;20056;-91
2022/03/02 09:48:26;;;;;;;18.98;10.60;;;;;;;3.26;97.14;101653.53;6040378;29;20048;-91
2022/03/02 09:51:32;;;;;;;16.33;8.32;;;;;;;3.30;93.64;101659.38;6043382;29;20052;-91
2022/03/02 09:54:40;;;;;;;14.18;8.00;;;;;;;3.28;93.58;101656.03;6032142;29;20049;-91
2022/03/02 09:57:47;;;;;;;15.85;9.23;;;;;;;3.29;94.42;101652.59;6034465;29;20069;-91
2022/03/02 10:00:53;;;;;;;15.00;8.93;;;;;;;3.34;94.79;101655.84;6039330;29;20048;-91
2022/03/02 10:04:06;;;;;;;16.10;8.20;;;;;;;3.29;95.93;101647.47;6051046;29;20076;-91
2022/03/02 10:10:36;;;;;;;13.73;8.73;;;;;;;3.22;96.87;101652.78;6045879;29;20048;-91
2022/03/02 10:13:39;;;;;;;16.92;8.60;;;;;;;3.23;93.11;101646.78;6049341;29;20049;-91
2022/03/02 10:16:44;;;;;;;13.07;8.10;;;;;;;3.27;91.84;101642.41;6040613;29;20135;-91
2022/03/02 10:20:10;;;;;;;17.70;8.95;;;;;;;3.43;90.78;101638.50;6049291;29;20048;-91
2022/03/02 10:23:33;;;;;;;17.17;9.60;;;;;;;3.64;89.49;101642.09;6029458;29;20509;-91
2022/03/02 10:26:46;;;;;;;13.38;8.30;;;;;;;3.75;83.57;101635.78;6029314;29;20065;-91
2022/03/02 10:30:03;;;;;;;16.13;9.25;;;;;;;3.87;82.99;101641.31;6037581;29;20045;-91
2022/03/02 10:33:18;;;;;;;17.48;8.13;;;;;;;4.01;83.03;101645.19;6040212;29;20052;-91
2022/03/02 10:36:26;;;;;;;18.60;9.82;;;;;;;4.07;82.96;101634.72;6045273;29;20049;-91
2022/03/02 10:39:52;;;;;;;14.57;8.15;;;;;;;4.13;78.03;101638.81;6030445;29;20056;-91
2022/03/02 10:43:13;;;;;;;12.07;8.27;;;;;;;4.20;79.37;101630.00;6058699;29;20053;-92
2022/03/02 10:46:21;;;;;;;13.00;7.97;;;;;;;4.27;74.42;101629.75;6059154;29;20212;-91
2022/03/02 10:49:26;;;;;;;15.43;7.97;;;;;;;4.37;72.29;101617.44;6055970;29;20044;-91
2022/03/02 10:52:32;;;;;;;15.30;8.30;;;;;;;4.39;74.67;101618.22;6034123;29;20474;-91
2022/03/02 10:55:35;;;;;;;15.65;8.35;;;;;;;4.61;70.64;101617.44;6052552;29;20044;-91
2022/03/02 10:58:39;;;;;;;15.52;8.60;;;;;;;4.56;69.61;101619.34;6050686;29;20042;-91
2022/03/02 11:01:41;;;;;;;15.77;8.95;;;;;;;4.61;71.82;101610.59;6036236;29;20045;-91
2022/03/02 11:04:48;;;;;;;14.43;8.20;;;;;;;4.66;69.89;101605.28;6044918;29;20053;-91
2022/03/02 11:07:51;;;;;;;13.20;8.20;;;;;;;4.85;72.36;101602.91;6041663;29;20052;-91
2022/03/02 11:10:53;;;;;;;12.48;8.13;;;;;;;5.02;71.60;101609.94;6049903;29;20052;-91
2022/03/02 11:13:56;;;;;;;13.57;8.68;;;;;;;5.08;71.41;101600.28;6051310;29;20053;-91
2022/03/02 11:17:16;;;;;;;12.45;8.45;;;;;;;5.21;73.14;101605.75;6032919;29;20522;-91
2022/03/02 11:20:29;;;;;;;14.73;8.93;;;;;;;5.24;70.57;101594.53;6048440;29;20068;-90
2022/03/02 11:23:52;;;;;;;14.35;9.30;;;;;;;5.31;73.49;101596.78;6031925;29;20049;-91
2022/03/02 11:26:54;;;;;;;13.98;9.13;;;;;;;5.31;71.59;101594.22;6045871;29;20052;-91
2022/03/02 11:30:17;;;;;;;15.98;9.05;;;;;;;5.31;68.45;101601.94;6055015;29;20047;-91
2022/03/02 11:33:30;;;;;;;17.23;8.88;;;;;;;5.27;66.87;101595.28;6046591;29;20082;-91
2022/03/02 11:36:41;;;;;;;13.45;8.40;;;;;;;5.36;68.67;101594.06;6039978;29;20053;-91
2022/03/02 11:39:44;;;;;;;12.80;8.25;;;;;;;5.39;62.97;101583.66;6049180;29;20049;-91
2022/03/02 11:42:46;;;;;;;11.90;7.57;;;;;;;5.44;62.46;101579.19;6052858;29;20059;-91
2022/03/02 11:46:04;;;;;;;13.60;8.48;;;;;;;5.54;65.18;101572.78;6051088;29;20049;-91
2022/03/02 11:49:07;;;;;;;14.98;9.13;;;;;;;5.60;62.08;101557.09;6033801;29;20693;-91
2022/03/02 11:52:12;;;;;;;10.43;7.22;;;;;;;5.64;61.71;101559.53;6052235;29;20112;-91
2022/03/02 11:55:17;;;;;;;15.60;8.43;;;;;;;5.84;62.53;101549.28;6049293;29;20131;-91
2022/03/02 11:58:25;;;;;;;15.82;7.70;;;;;;;5.92;62.81;101546.38;6052206;29;20045;-91
2022/03/02 12:01:53;;;;;;;14.63;8.25;;;;;;;6.01;62.18;101551.13;6052045;29;20037;-91
2022/03/02 12:05:06;;;;;;;14.65;8.63;;;;;;;6.20;59.77;101549.44;6037484;29;20060;-91
2022/03/02 12:08:14;;;;;;;14.68;8.55;;;;;;;6.18;63.37;101534.97;6024826;29;20046;-91
2022/03/02 12:11:38;;;;;;;12.48;7.75;;;;;;;6.13;60.57;101534.34;6040525;29;20399;-91
2022/03/02 12:15:05;;;;;;;13.38;8.88;;;;;;;6.16;60.48;101523.94;6027057;29;20033;-91
2022/03/02 12:18:10;;;;;;;14.65;8.43;;;;;;;6.23;59.21;101522.75;6044103;29;20044;-91
2022/03/02 12:21:17;;;;;;;15.70;9.15;;;;;;;6.33;65.38;101518.88;6032225;29;20068;-91
2022/03/02 12:24:27;;;;;;;15.75;9.10;;;;;;;6.42;61.55;101515.06;6030658;29;20124;-91
2022/03/02 12:27:29;;;;;;;14.75;8.35;;;;;;;6.41;62.91;101501.38;6038545;29;20076;-91
2022/03/02 12:30:36;;;;;;;17.27;9.27;;;;;;;6.57;63.18;101509.19;6047973;29;20117;-91
2022/03/02 12:33:38;;;;;;;16.80;9.38;;;;;;;6.59;60.02;101507.41;6047153;29;20483;-91
2022/03/02 12:37:02;;;;;;;16.73;8.50;;;;;;;6.75;63.39;101501.53;6035133;29;20495;-91
2022/03/02 12:40:09;;;;;;;14.45;9.15;;;;;;;6.84;62.24;101499.34;6048793;29;20124;-91
2022/03/02 12:43:16;;;;;;;16.63;9.88;;;;;;;7.00;64.38;101498.63;6045098;29;20136;-91
2022/03/02 12:46:27;;;;;;;20.10;10.10;;;;;;;6.97;58.34;101491.88;6047471;29;20130;-91
2022/03/02 12:49:31;;;;;;;14.38;8.68;;;;;;;6.96;56.87;101494.53;6034137;29;20033;-91
2022/03/02 12:52:34;;;;;;;17.02;9.43;;;;;;;7.03;61.78;101485.59;6042271;29;20125;-91
2022/03/02 12:55:36;;;;;;;13.98;9.80;;;;;;;7.15;61.23;101486.75;6040535;29;20721;-91
2022/03/02 12:58:39;;;;;;;18.17;10.05;;;;;;;7.20;58.93;101487.34;6025228;29;20056;-91
2022/03/02 13:01:41;;;;;;;17.40;9.57;;;;;;;7.23;59.53;101485.47;6045580;29;20119;-91
2022/03/02 13:05:15;;;;;;;15.48;10.07;;;;;;;7.39;60.41;101487.28;6036019;29;20073;-91
2022/03/02 13:08:37;;;;;;;16.85;9.27;;;;;;;7.44;60.15;101480.16;6043321;29;20076;-91
2022/03/02 13:11:39;;;;;;;15.88;9.93;;;;;;;7.45;57.41;101486.94;6018187;29;20486;-91
2022/03/02 13:14:42;;;;;;;17.45;9.05;;;;;;;7.44;60.78;101480.97;6045105;29;20077;-91
2022/03/02 13:17:45;;;;;;;17.02;10.02;;;;;;;7.44;58.67;101473.25;6046774;29;20056;-91
2022/03/02 13:21:00;;;;;;;15.43;9.85;;;;;;;7.49;57.14;101476.41;6043300;29;20795;-91
2022/03/02 13:24:11;;;;;;;17.75;9.90;;;;;;;7.62;59.17;101468.88;6044070;29;20461;-91
2022/03/02 13:27:26;;;;;;;17.42;9.88;;;;;;;7.82;60.32;101480.75;6038616;29;20104;-92
2022/03/02 13:30:28;;;;;;;19.05;10.40;;;;;;;7.88;53.42;101474.47;6049968;29;20049;-91
2022/03/02 13:33:51;;;;;;;17.55;10.38;;;;;;;7.99;55.28;101472.13;6039662;29;20161;-91
2022/03/02 13:36:56;;;;;;;18.75;10.02;;;;;;;7.96;56.72;101467.97;6049530;29;20423;-91
2022/03/02 13:39:59;;;;;;;17.73;10.73;;;;;;;8.04;54.09;101474.47;6045063;29;20049;-91
2022/03/02 13:43:22;;;;;;;15.88;9.60;;;;;;;8.03;55.56;101471.06;6026444;29;20092;-91
2022/03/02 13:46:24;;;;;;;16.88;9.73;;;;;;;8.10;54.93;101474.13;6022087;29;20053;-91
2022/03/02 13:49:27;;;;;;;17.00;10.43;;;;;;;8.18;54.30;101466.84;6045537;29;20044;-91
2022/03/02 13:52:29;;;;;;;19.77;10.27;;;;;;;8.39;53.30;101459.66;6049422;29;20079;-91
2022/03/02 13:55:34;;;;;;;17.50;10.43;;;;;;;8.44;53.64;101459.47;6042486;29;20487;-91
2022/03/02 13:58:45;;;;;;;17.10;9.88;;;;;;;8.41;52.88;101456.13;6024016;29;20156;-91
2022/03/02 14:01:47;;;;;;;16.73;10.18;;;;;;;8.50;52.24;101457.38;6021879;29;20046;-91
2022/03/02 14:04:50;;;;;;;22.00;10.50;;;;;;;8.65;53.00;101458.28;6029637;29;20052;-92
2022/03/02 14:07:53;;;;;;;17.08;10.10;;;;;;;8.59;51.98;101456.84;6029113;29;20045;-91
2022/03/02 14:10:56;;;;;;;20.55;10.32;;;;;;;8.51;53.25;101448.72;6035784;29;20173;-91
2022/03/02 14:13:59;;;;;;;17.75;10.82;;;;;;;8.49;50.23;101453.13;6038881;29;20047;-91
2022/03/02 14:17:14;;;;;;;20.95;10.60;;;;;;;8.48;50.39;101453.22;6044950;29;20048;-91
2022/03/02 14:20:37;;;;;;;17.63;10.20;;;;;;;8.49;50.73;101447.97;6029072;29;20045;-91